WetterOnline ( https://www.wetteronline.de )

Wetter aktuell Friedrich-Wilhelm-Lübke-Koog

Aktuelles Wetter: Leck (17m)

6-stündlich | Neueste Meldungen
Ortszeit Temperatur Wetter
Di, 20.08. 8:00 13.5° C Regen
Di, 20.08. 2:00 13.9° C leichter Regen
Mo, 19.08. 20:00 17.1° C wolkig
Mo, 19.08. 14:00 18.0° C wolkig
Mo, 19.08. 8:00 14.2° C bedeckt
Mo, 19.08. 2:00 13.4° C fast wolkenlos
So, 18.08. 20:00 16.7° C bewölkt
So, 18.08. 14:00 16.7° C Regen
Ortszeit Temperatur Wetter
Di, 20.08. 12:00 19.0° C leicht bewölkt
Di, 20.08. 11:50 19.0° C leicht bewölkt
Di, 20.08. 11:40 18.8° C leicht bewölkt
Di, 20.08. 11:30 18.6° C leicht bewölkt
Di, 20.08. 11:20 18.6° C leicht bewölkt
Di, 20.08. 11:10 17.8° C wolkenlos
Di, 20.08. 11:00 17.7° C leicht bewölkt
Di, 20.08. 10:30 15.8° C leichter Regen
Di, 20.08. 10:00 15.0° C leichter Regen
Di, 20.08. 9:30 17.1° C bewölkt
Di, 20.08. 9:00 14.7° C bewölkt
Ortszeit Relative Feuchte Sichtweite
Di, 20.08. 8:00 93% 55 km
Di, 20.08. 2:00 90% 30 km
Mo, 19.08. 20:00 72% 35 km
Mo, 19.08. 14:00 75% 14 km
Mo, 19.08. 8:00 88% 60 km
Mo, 19.08. 2:00 96% 25 km
So, 18.08. 20:00 84% 30 km
So, 18.08. 14:00 82% 30 km
Ortszeit Relative Feuchte Sichtweite
Di, 20.08. 12:00 65% 12 km
Di, 20.08. 11:50 65% -
Di, 20.08. 11:40 67% -
Di, 20.08. 11:30 72% 28 km
Di, 20.08. 11:20 72% -
Di, 20.08. 11:10 73% -
Di, 20.08. 11:00 76% 27 km
Di, 20.08. 10:30 79% 35 km
Di, 20.08. 10:00 86% 28 km
Di, 20.08. 9:30 83% 30 km
Di, 20.08. 9:00 93% 30 km
Ortszeit Niederschlagsmenge Niederschlagsart
Di, 20.08. 8:00 7 l/m2 in 12 Std. Regenschauer
Di, 20.08. 2:00 0.1 l/m2 in 6 Std. Regen
Mo, 19.08. 20:00 0.8 l/m2 in 12 Std. Regen
Mo, 19.08. 14:00 0.8 l/m2 in 6 Std. Regenschauer
Mo, 19.08. 8:00 1 l/m2 in 12 Std. Regen
Mo, 19.08. 2:00 0.1 l/m2 in 6 Std. Regen
So, 18.08. 20:00 0.3 l/m2 in 12 Std. Regen
So, 18.08. 14:00 0.1 l/m2 in 6 Std. Regen
Ortszeit Niederschlagsmenge Niederschlagsart
Di, 20.08. 12:00 0.0 l/m2 in 1 Std. -
Di, 20.08. 11:50 keine Meldung -
Di, 20.08. 11:40 keine Meldung -
Di, 20.08. 11:30 0.0 l/m2 in 1 Std. -
Di, 20.08. 11:20 keine Meldung -
Di, 20.08. 11:10 keine Meldung -
Di, 20.08. 11:00 0.3 l/m2 in 1 Std. Regen
Di, 20.08. 10:30 0.3 l/m2 in 1 Std. -
Di, 20.08. 10:00 0.6 l/m2 in 1 Std. Regen
Di, 20.08. 9:30 0.1 l/m2 in 1 Std. Schneeregen
Di, 20.08. 9:00 0.1 l/m2 in 1 Std. Regen
Ortszeit Stärke Spitze Richtung
km/h Bft. km/h Grad Sektor
Di, 20.08. 8:00 11 2 25 180° S
Di, 20.08. 2:00 9 2 28 180° S
Mo, 19.08. 20:00 17 3 52 230° SW
Mo, 19.08. 14:00 29 5 50 240° SW
Mo, 19.08. 8:00 17 3 30 260° W
Mo, 19.08. 2:00 9 2 22 200° S
So, 18.08. 20:00 14 3 36 230° SW
So, 18.08. 14:00 17 3 31 190° S
Ortszeit Stärke Spitze Richtung
km/h Bft. km/h Grad Sektor
Di, 20.08. 12:00 17 3 31 260° W
Di, 20.08. 11:50 17 3 - 260° W
Di, 20.08. 11:40 18 3 - 240° SW
Di, 20.08. 11:30 18 3 32 260° W
Di, 20.08. 11:20 18 3 - 260° W
Di, 20.08. 11:10 18 3 - 250° W
Di, 20.08. 11:00 14 3 22 240° SW
Di, 20.08. 10:30 11 2 22 220° SW
Di, 20.08. 10:00 14 3 36 220° SW
Di, 20.08. 9:30 15 3 24 200° S
Di, 20.08. 9:00 11 2 14 180° S
Ortszeit Untergrenze Bedeckung Gattung
total tief tief mittel hoch
Di, 20.08. 8:00 1500 m 7/8 1/8 - - -
Di, 20.08. 2:00 2100 m 8/8 7/8 - - -
Mo, 19.08. 20:00 2400 m 8/8 2/8 - - -
Mo, 19.08. 14:00 570 m 6/8 6/8 - - -
Mo, 19.08. 8:00 270 m 8/8 8/8 - - -
Mo, 19.08. 2:00 2100 m 0/8 0/8 - - -
So, 18.08. 20:00 600 m 7/8 7/8 - - -
So, 18.08. 14:00 510 m 8/8 8/8 - - -
Ortszeit Bedeckungsgrad in Achtel und Wolkenuntergrenze
Di, 20.08. 12:00 3(960m)
Di, 20.08. 11:50 3(960m)
Di, 20.08. 11:40 2(780m) 4(960m)
Di, 20.08. 11:30 2(750m)
Di, 20.08. 11:20 2(750m)
Di, 20.08. 11:10 keine Wolken
Di, 20.08. 11:00 1(2100m)
Di, 20.08. 10:30 1(1470m) 7(2100m) 8(2400m)
Di, 20.08. 10:00 2(660m) 4(1800m) 7(2100m)
Di, 20.08. 9:30 3(660m) 6(1800m) 7(2700m)
Di, 20.08. 9:00 1(2100m) 7(2400m)
Ortszeit Luftdruck NN (hPa) Tendenz (hPa in 3 Std.)
Di, 20.08. 8:00 1017 + 0,7
Di, 20.08. 2:00 1016 + 0,6
Mo, 19.08. 20:00 1014 + 0,8
Mo, 19.08. 14:00 1012 + 1,5
Mo, 19.08. 8:00 1009 + 1,5
Mo, 19.08. 2:00 1007 + 0,7
So, 18.08. 20:00 1005 + 0,9
So, 18.08. 14:00 1004 - 0,1
Ortszeit Luftdruck NN (hPa) Tendenz (hPa in 3 Std.)
Di, 20.08. 12:00 1019 + 1,5
Di, 20.08. 11:50 1019 keine Meldung
Di, 20.08. 11:40 1019 keine Meldung
Di, 20.08. 11:30 1019 + 1,4
Di, 20.08. 11:20 1019 keine Meldung
Di, 20.08. 11:10 1019 keine Meldung
Di, 20.08. 11:00 1019 + 1,6
Di, 20.08. 10:30 1019 + 1,8
Di, 20.08. 10:00 1018 + 1,6
Di, 20.08. 9:30 1018 + 1,3
Di, 20.08. 9:00 1018 + 1,4
Ortszeit Schneehöhe (cm)
Di, 20.08. 8:00 -
Di, 20.08. 2:00 -
Mo, 19.08. 20:00 -
Mo, 19.08. 14:00 -
Mo, 19.08. 8:00 -
Mo, 19.08. 2:00 -
So, 18.08. 20:00 -
So, 18.08. 14:00 -
Ortszeit Schneehöhe (cm)
Di, 20.08. 12:00 -
Di, 20.08. 11:50 -
Di, 20.08. 11:40 -
Di, 20.08. 11:30 -
Di, 20.08. 11:20 -
Di, 20.08. 11:10 -
Di, 20.08. 11:00 -
Di, 20.08. 10:30 -
Di, 20.08. 10:00 -
Di, 20.08. 9:30 -
Di, 20.08. 9:00 -
Link zu dieser Seite / Seite empfehlen

Das Wetter in ...